sensor_id;sensor_type;location;lat;lon;timestamp;pressure;altitude;pressure_sealevel;temperature;humidity
84592;BME280;74826;50.812;16.038;2023-12-28T00:00:26;96774.22;;;4.31;76.60
84592;BME280;74826;50.812;16.038;2023-12-28T00:02:52;96770.19;;;4.15;77.52
84592;BME280;74826;50.812;16.038;2023-12-28T00:05:17;96783.75;;;4.17;77.47
84592;BME280;74826;50.812;16.038;2023-12-28T00:07:43;96766.50;;;4.16;78.36
84592;BME280;74826;50.812;16.038;2023-12-28T00:10:09;96777.00;;;4.11;78.24
84592;BME280;74826;50.812;16.038;2023-12-28T00:12:34;96751.16;;;3.86;79.28
84592;BME280;74826;50.812;16.038;2023-12-28T00:14:59;96771.38;;;3.99;79.35
84592;BME280;74826;50.812;16.038;2023-12-28T00:17:25;96744.03;;;3.91;79.27
84592;BME280;74826;50.812;16.038;2023-12-28T00:19:50;96758.25;;;4.04;79.63
84592;BME280;74826;50.812;16.038;2023-12-28T00:22:16;96765.50;;;4.12;78.42
84592;BME280;74826;50.812;16.038;2023-12-28T00:24:41;96750.84;;;4.16;77.71
84592;BME280;74826;50.812;16.038;2023-12-28T00:27:07;96769.63;;;4.18;78.48
84592;BME280;74826;50.812;16.038;2023-12-28T00:29:33;96760.19;;;4.22;78.33
84592;BME280;74826;50.812;16.038;2023-12-28T00:31:59;96737.28;;;4.14;78.27
84592;BME280;74826;50.812;16.038;2023-12-28T00:34:25;96740.69;;;4.38;76.93
84592;BME280;74826;50.812;16.038;2023-12-28T00:36:50;96734.25;;;4.54;76.46
84592;BME280;74826;50.812;16.038;2023-12-28T00:39:16;96752.28;;;4.74;75.63
84592;BME280;74826;50.812;16.038;2023-12-28T00:41:41;96750.81;;;4.87;74.07
84592;BME280;74826;50.812;16.038;2023-12-28T00:44:06;96747.09;;;4.93;74.03
84592;BME280;74826;50.812;16.038;2023-12-28T00:46:35;96722.91;;;4.82;74.12
84592;BME280;74826;50.812;16.038;2023-12-28T00:49:00;96734.84;;;4.88;73.07
84592;BME280;74826;50.812;16.038;2023-12-28T00:51:25;96735.06;;;4.92;72.69
84592;BME280;74826;50.812;16.038;2023-12-28T00:53:51;96733.84;;;4.84;73.84
84592;BME280;74826;50.812;16.038;2023-12-28T00:56:16;96741.69;;;4.84;74.34
84592;BME280;74826;50.812;16.038;2023-12-28T00:58:42;96716.75;;;4.73;74.22
84592;BME280;74826;50.812;16.038;2023-12-28T01:01:09;96719.38;;;4.73;74.29
84592;BME280;74826;50.812;16.038;2023-12-28T01:03:34;96737.38;;;4.75;74.10
84592;BME280;74826;50.812;16.038;2023-12-28T01:06:00;96737.94;;;4.72;74.82
84592;BME280;74826;50.812;16.038;2023-12-28T01:08:25;96733.06;;;4.65;75.20
84592;BME280;74826;50.812;16.038;2023-12-28T01:10:51;96732.63;;;4.58;74.44
84592;BME280;74826;50.812;16.038;2023-12-28T01:13:16;96753.19;;;4.41;76.18
84592;BME280;74826;50.812;16.038;2023-12-28T01:15:42;96719.84;;;4.09;75.93
84592;BME280;74826;50.812;16.038;2023-12-28T01:18:07;96709.16;;;4.06;76.97
84592;BME280;74826;50.812;16.038;2023-12-28T01:20:33;96723.91;;;4.44;75.79
84592;BME280;74826;50.812;16.038;2023-12-28T01:22:58;96709.84;;;4.40;74.83
84592;BME280;74826;50.812;16.038;2023-12-28T01:25:24;96712.41;;;4.45;74.33
84592;BME280;74826;50.812;16.038;2023-12-28T01:27:49;96707.63;;;4.52;74.32
84592;BME280;74826;50.812;16.038;2023-12-28T01:30:14;96693.94;;;4.60;74.19
84592;BME280;74826;50.812;16.038;2023-12-28T01:32:40;96683.69;;;4.64;74.91
84592;BME280;74826;50.812;16.038;2023-12-28T01:35:05;96672.06;;;4.56;74.14
84592;BME280;74826;50.812;16.038;2023-12-28T01:37:31;96664.06;;;4.47;75.86
84592;BME280;74826;50.812;16.038;2023-12-28T01:39:59;96649.06;;;4.34;76.60
84592;BME280;74826;50.812;16.038;2023-12-28T01:42:24;96661.69;;;4.27;77.36
84592;BME280;74826;50.812;16.038;2023-12-28T01:44:50;96663.25;;;4.05;78.77
84592;BME280;74826;50.812;16.038;2023-12-28T01:47:15;96633.13;;;3.94;79.14
84592;BME280;74826;50.812;16.038;2023-12-28T01:49:41;96642.38;;;4.05;79.22
84592;BME280;74826;50.812;16.038;2023-12-28T01:52:07;96626.44;;;3.83;80.13
84592;BME280;74826;50.812;16.038;2023-12-28T01:54:33;96671.28;;;3.85;80.78
84592;BME280;74826;50.812;16.038;2023-12-28T01:57:00;96640.66;;;3.72;80.49
84592;BME280;74826;50.812;16.038;2023-12-28T01:59:25;96669.19;;;3.87;80.71
84592;BME280;74826;50.812;16.038;2023-12-28T02:01:51;96654.53;;;3.91;80.15
84592;BME280;74826;50.812;16.038;2023-12-28T02:04:16;96660.88;;;4.08;79.49
84592;BME280;74826;50.812;16.038;2023-12-28T02:06:42;96642.78;;;3.93;79.83
84592;BME280;74826;50.812;16.038;2023-12-28T02:09:08;96648.09;;;4.07;79.20
84592;BME280;74826;50.812;16.038;2023-12-28T02:11:34;96670.41;;;4.18;78.85
84592;BME280;74826;50.812;16.038;2023-12-28T02:13:59;96677.09;;;4.29;79.40
84592;BME280;74826;50.812;16.038;2023-12-28T02:16:40;96684.63;;;4.30;78.90
84592;BME280;74826;50.812;16.038;2023-12-28T02:19:32;96660.53;;;4.15;79.56
84592;BME280;74826;50.812;16.038;2023-12-28T02:22:02;96673.41;;;4.30;78.34
84592;BME280;74826;50.812;16.038;2023-12-28T02:24:28;96662.53;;;4.23;78.78
84592;BME280;74826;50.812;16.038;2023-12-28T02:26:53;96651.97;;;4.33;78.23
84592;BME280;74826;50.812;16.038;2023-12-28T02:29:18;96703.84;;;4.39;77.55
84592;BME280;74826;50.812;16.038;2023-12-28T02:31:53;96648.53;;;4.14;78.71
84592;BME280;74826;50.812;16.038;2023-12-28T02:34:34;96647.97;;;4.17;78.64
84592;BME280;74826;50.812;16.038;2023-12-28T02:37:03;96684.34;;;4.32;78.21
84592;BME280;74826;50.812;16.038;2023-12-28T02:39:30;96656.41;;;4.32;77.69
84592;BME280;74826;50.812;16.038;2023-12-28T02:41:56;96665.84;;;4.28;77.79
84592;BME280;74826;50.812;16.038;2023-12-28T02:44:21;96678.50;;;4.40;77.98
84592;BME280;74826;50.812;16.038;2023-12-28T02:46:47;96680.50;;;4.48;77.50
84592;BME280;74826;50.812;16.038;2023-12-28T02:49:12;96687.59;;;4.66;76.67
84592;BME280;74826;50.812;16.038;2023-12-28T02:51:38;96672.25;;;4.60;76.05
84592;BME280;74826;50.812;16.038;2023-12-28T02:54:03;96639.38;;;4.35;76.63
84592;BME280;74826;50.812;16.038;2023-12-28T02:56:29;96633.63;;;4.38;76.69
84592;BME280;74826;50.812;16.038;2023-12-28T02:58:55;96649.66;;;4.69;76.27
84592;BME280;74826;50.812;16.038;2023-12-28T03:01:20;96625.16;;;4.46;76.26
84592;BME280;74826;50.812;16.038;2023-12-28T03:03:45;96616.53;;;4.27;76.49
84592;BME280;74826;50.812;16.038;2023-12-28T03:06:11;96616.09;;;4.20;77.53
84592;BME280;74826;50.812;16.038;2023-12-28T03:08:36;96621.59;;;4.37;77.43
84592;BME280;74826;50.812;16.038;2023-12-28T03:11:01;96617.38;;;4.41;77.46
84592;BME280;74826;50.812;16.038;2023-12-28T03:13:27;96598.00;;;4.05;78.36
84592;BME280;74826;50.812;16.038;2023-12-28T03:15:53;96619.41;;;4.25;78.55
84592;BME280;74826;50.812;16.038;2023-12-28T03:18:18;96611.22;;;4.13;79.12
84592;BME280;74826;50.812;16.038;2023-12-28T03:20:44;96612.75;;;4.14;79.24
84592;BME280;74826;50.812;16.038;2023-12-28T03:23:11;96613.66;;;4.05;79.68
84592;BME280;74826;50.812;16.038;2023-12-28T03:25:36;96621.22;;;4.06;79.96
84592;BME280;74826;50.812;16.038;2023-12-28T03:28:02;96628.31;;;4.01;79.63
84592;BME280;74826;50.812;16.038;2023-12-28T03:30:27;96614.34;;;3.92;79.73
84592;BME280;74826;50.812;16.038;2023-12-28T03:32:53;96638.78;;;4.01;79.11
84592;BME280;74826;50.812;16.038;2023-12-28T03:35:18;96632.22;;;4.03;80.23
84592;BME280;74826;50.812;16.038;2023-12-28T03:37:43;96614.66;;;4.09;79.55
84592;BME280;74826;50.812;16.038;2023-12-28T03:40:09;96607.94;;;4.03;78.69
84592;BME280;74826;50.812;16.038;2023-12-28T03:42:35;96616.16;;;4.15;78.63
84592;BME280;74826;50.812;16.038;2023-12-28T03:45:00;96632.88;;;4.14;78.92
84592;BME280;74826;50.812;16.038;2023-12-28T03:47:26;96604.72;;;4.11;77.23
84592;BME280;74826;50.812;16.038;2023-12-28T03:49:51;96613.22;;;4.40;76.39
84592;BME280;74826;50.812;16.038;2023-12-28T03:52:16;96606.94;;;4.41;75.33
84592;BME280;74826;50.812;16.038;2023-12-28T03:54:42;96641.69;;;4.60;75.24
84592;BME280;74826;50.812;16.038;2023-12-28T03:57:07;96627.16;;;4.54;75.42
84592;BME280;74826;50.812;16.038;2023-12-28T03:59:33;96624.16;;;4.42;75.30
84592;BME280;74826;50.812;16.038;2023-12-28T04:01:58;96627.19;;;4.49;74.82
84592;BME280;74826;50.812;16.038;2023-12-28T04:04:23;96632.06;;;4.74;74.08
84592;BME280;74826;50.812;16.038;2023-12-28T04:06:49;96626.84;;;4.74;72.83
84592;BME280;74826;50.812;16.038;2023-12-28T04:09:14;96629.81;;;4.86;73.21
84592;BME280;74826;50.812;16.038;2023-12-28T04:11:39;96638.56;;;4.95;71.99
84592;BME280;74826;50.812;16.038;2023-12-28T04:14:05;96624.09;;;5.03;72.25
84592;BME280;74826;50.812;16.038;2023-12-28T04:16:30;96608.34;;;4.89;72.12
84592;BME280;74826;50.812;16.038;2023-12-28T04:18:56;96639.38;;;5.09;72.06
84592;BME280;74826;50.812;16.038;2023-12-28T04:21:21;96620.81;;;5.11;72.62
84592;BME280;74826;50.812;16.038;2023-12-28T04:23:47;96617.00;;;5.03;71.80
84592;BME280;74826;50.812;16.038;2023-12-28T04:26:12;96596.13;;;4.85;71.73
84592;BME280;74826;50.812;16.038;2023-12-28T04:28:39;96606.22;;;4.91;73.21
84592;BME280;74826;50.812;16.038;2023-12-28T04:31:04;96595.47;;;4.93;73.62
84592;BME280;74826;50.812;16.038;2023-12-28T04:33:30;96587.53;;;4.66;74.52
84592;BME280;74826;50.812;16.038;2023-12-28T04:35:56;96571.78;;;4.52;76.56
84592;BME280;74826;50.812;16.038;2023-12-28T04:38:21;96597.13;;;4.51;76.84
84592;BME280;74826;50.812;16.038;2023-12-28T04:40:47;96604.59;;;4.39;76.95
84592;BME280;74826;50.812;16.038;2023-12-28T04:43:12;96605.81;;;4.47;77.07
84592;BME280;74826;50.812;16.038;2023-12-28T04:45:37;96603.75;;;4.25;78.48
84592;BME280;74826;50.812;16.038;2023-12-28T04:48:04;96616.00;;;3.83;80.30
84592;BME280;74826;50.812;16.038;2023-12-28T04:50:29;96625.56;;;3.69;82.31
84592;BME280;74826;50.812;16.038;2023-12-28T04:52:55;96637.13;;;3.57;82.86
84592;BME280;74826;50.812;16.038;2023-12-28T04:55:20;96663.81;;;3.49;83.02
84592;BME280;74826;50.812;16.038;2023-12-28T04:57:46;96642.06;;;3.35;83.04
84592;BME280;74826;50.812;16.038;2023-12-28T05:00:11;96648.50;;;3.43;83.13
84592;BME280;74826;50.812;16.038;2023-12-28T05:02:37;96703.00;;;3.39;83.49
84592;BME280;74826;50.812;16.038;2023-12-28T05:05:03;96676.75;;;3.31;83.13
84592;BME280;74826;50.812;16.038;2023-12-28T05:07:28;96681.25;;;3.54;82.99
84592;BME280;74826;50.812;16.038;2023-12-28T05:09:54;96653.22;;;3.41;82.30
84592;BME280;74826;50.812;16.038;2023-12-28T05:12:19;96655.03;;;3.40;82.64
84592;BME280;74826;50.812;16.038;2023-12-28T05:14:44;96655.22;;;3.49;82.45
84592;BME280;74826;50.812;16.038;2023-12-28T05:17:10;96639.81;;;3.47;81.93
84592;BME280;74826;50.812;16.038;2023-12-28T05:19:35;96627.19;;;3.59;80.45
84592;BME280;74826;50.812;16.038;2023-12-28T05:22:01;96655.22;;;3.73;80.10
84592;BME280;74826;50.812;16.038;2023-12-28T05:24:29;96655.69;;;3.80;80.00
84592;BME280;74826;50.812;16.038;2023-12-28T05:26:54;96623.19;;;3.72;80.32
84592;BME280;74826;50.812;16.038;2023-12-28T05:29:20;96657.22;;;3.86;79.32
84592;BME280;74826;50.812;16.038;2023-12-28T05:31:45;96670.88;;;4.01;78.85
84592;BME280;74826;50.812;16.038;2023-12-28T05:34:10;96661.75;;;3.99;77.67
84592;BME280;74826;50.812;16.038;2023-12-28T05:36:36;96633.47;;;4.06;77.94
84592;BME280;74826;50.812;16.038;2023-12-28T05:39:01;96627.38;;;4.15;76.33
84592;BME280;74826;50.812;16.038;2023-12-28T05:41:27;96630.22;;;4.19;75.94
84592;BME280;74826;50.812;16.038;2023-12-28T05:43:53;96620.50;;;4.01;76.82
84592;BME280;74826;50.812;16.038;2023-12-28T05:46:18;96597.22;;;3.81;75.93
84592;BME280;74826;50.812;16.038;2023-12-28T05:48:43;96667.97;;;4.26;76.34
84592;BME280;74826;50.812;16.038;2023-12-28T05:51:09;96633.88;;;3.94;76.77
84592;BME280;74826;50.812;16.038;2023-12-28T05:53:35;96666.38;;;4.07;76.95
84592;BME280;74826;50.812;16.038;2023-12-28T05:56:01;96674.75;;;4.04;77.58
84592;BME280;74826;50.812;16.038;2023-12-28T05:58:29;96715.69;;;4.08;77.37
84592;BME280;74826;50.812;16.038;2023-12-28T06:00:54;96658.75;;;3.87;77.39
84592;BME280;74826;50.812;16.038;2023-12-28T06:03:19;96688.03;;;4.07;77.51
84592;BME280;74826;50.812;16.038;2023-12-28T06:05:45;96660.22;;;3.98;76.99
84592;BME280;74826;50.812;16.038;2023-12-28T06:08:10;96682.31;;;4.05;76.54
84592;BME280;74826;50.812;16.038;2023-12-28T06:10:36;96704.84;;;4.20;76.52
84592;BME280;74826;50.812;16.038;2023-12-28T06:13:01;96699.72;;;4.10;76.87
84592;BME280;74826;50.812;16.038;2023-12-28T06:15:27;96673.81;;;3.95;76.87
84592;BME280;74826;50.812;16.038;2023-12-28T06:17:52;96679.84;;;4.14;76.45
84592;BME280;74826;50.812;16.038;2023-12-28T06:20:18;96688.53;;;4.33;75.33
84592;BME280;74826;50.812;16.038;2023-12-28T06:22:44;96671.63;;;4.25;75.65
84592;BME280;74826;50.812;16.038;2023-12-28T06:25:13;96680.78;;;4.46;74.75
84592;BME280;74826;50.812;16.038;2023-12-28T06:27:39;96696.19;;;4.48;74.84
84592;BME280;74826;50.812;16.038;2023-12-28T06:30:04;96694.97;;;4.59;73.68
84592;BME280;74826;50.812;16.038;2023-12-28T06:32:30;96699.59;;;4.67;73.10
84592;BME280;74826;50.812;16.038;2023-12-28T06:34:55;96684.63;;;4.73;72.84
84592;BME280;74826;50.812;16.038;2023-12-28T06:37:21;96677.31;;;4.51;73.10
84592;BME280;74826;50.812;16.038;2023-12-28T06:39:46;96677.41;;;4.46;73.17
84592;BME280;74826;50.812;16.038;2023-12-28T06:42:12;96696.50;;;4.41;73.74
84592;BME280;74826;50.812;16.038;2023-12-28T06:44:37;96708.75;;;4.22;74.21
84592;BME280;74826;50.812;16.038;2023-12-28T06:47:03;96679.75;;;4.00;75.21
84592;BME280;74826;50.812;16.038;2023-12-28T06:49:28;96671.53;;;4.12;74.56
84592;BME280;74826;50.812;16.038;2023-12-28T06:51:53;96680.41;;;4.34;73.96
84592;BME280;74826;50.812;16.038;2023-12-28T06:54:19;96685.78;;;4.43;72.76
84592;BME280;74826;50.812;16.038;2023-12-28T06:56:44;96660.53;;;4.57;72.97
84592;BME280;74826;50.812;16.038;2023-12-28T06:59:09;96637.28;;;4.74;71.61
84592;BME280;74826;50.812;16.038;2023-12-28T07:01:38;96645.53;;;5.00;70.70
84592;BME280;74826;50.812;16.038;2023-12-28T07:04:03;96654.09;;;5.05;69.95
84592;BME280;74826;50.812;16.038;2023-12-28T07:06:29;96667.34;;;5.27;69.43
84592;BME280;74826;50.812;16.038;2023-12-28T07:08:54;96652.28;;;5.38;68.82
84592;BME280;74826;50.812;16.038;2023-12-28T07:11:19;96645.88;;;5.30;68.56
84592;BME280;74826;50.812;16.038;2023-12-28T07:13:45;96658.31;;;5.52;68.80
84592;BME280;74826;50.812;16.038;2023-12-28T07:16:10;96673.28;;;5.65;67.84
84592;BME280;74826;50.812;16.038;2023-12-28T07:18:36;96710.13;;;5.69;67.06
84592;BME280;74826;50.812;16.038;2023-12-28T07:21:01;96691.84;;;5.64;67.23
84592;BME280;74826;50.812;16.038;2023-12-28T07:23:26;96684.47;;;5.52;68.96
84592;BME280;74826;50.812;16.038;2023-12-28T07:25:52;96683.91;;;5.55;69.01
84592;BME280;74826;50.812;16.038;2023-12-28T07:28:18;96700.38;;;5.56;68.98
84592;BME280;74826;50.812;16.038;2023-12-28T07:30:43;96678.84;;;5.45;69.15
84592;BME280;74826;50.812;16.038;2023-12-28T07:33:09;96699.25;;;5.62;68.63
84592;BME280;74826;50.812;16.038;2023-12-28T07:35:34;96684.28;;;5.49;69.07
84592;BME280;74826;50.812;16.038;2023-12-28T07:38:00;96668.13;;;5.28;69.45
84592;BME280;74826;50.812;16.038;2023-12-28T07:40:26;96689.84;;;5.28;70.22
84592;BME280;74826;50.812;16.038;2023-12-28T07:42:51;96678.16;;;5.21;70.65
84592;BME280;74826;50.812;16.038;2023-12-28T07:45:16;96673.88;;;5.11;70.65
84592;BME280;74826;50.812;16.038;2023-12-28T07:47:43;96676.34;;;5.21;70.60
84592;BME280;74826;50.812;16.038;2023-12-28T07:50:08;96693.84;;;5.21;70.83
84592;BME280;74826;50.812;16.038;2023-12-28T07:52:35;96667.50;;;5.17;70.62
84592;BME280;74826;50.812;16.038;2023-12-28T07:55:03;96673.16;;;5.24;70.58
84592;BME280;74826;50.812;16.038;2023-12-28T07:57:28;96664.41;;;5.15;70.20
84592;BME280;74826;50.812;16.038;2023-12-28T07:59:53;96653.28;;;5.23;70.44
84592;BME280;74826;50.812;16.038;2023-12-28T08:02:19;96659.69;;;5.50;69.83
84592;BME280;74826;50.812;16.038;2023-12-28T08:04:44;96657.41;;;5.75;68.59
84592;BME280;74826;50.812;16.038;2023-12-28T08:07:10;96650.94;;;6.00;67.70
84592;BME280;74826;50.812;16.038;2023-12-28T08:09:35;96652.41;;;6.06;67.69
84592;BME280;74826;50.812;16.038;2023-12-28T08:12:00;96652.97;;;6.03;67.25
84592;BME280;74826;50.812;16.038;2023-12-28T08:14:27;96663.66;;;6.20;67.70
84592;BME280;74826;50.812;16.038;2023-12-28T08:16:53;96644.84;;;6.18;67.02
84592;BME280;74826;50.812;16.038;2023-12-28T08:19:18;96660.16;;;5.97;66.03
84592;BME280;74826;50.812;16.038;2023-12-28T08:21:43;96649.44;;;5.80;67.56
84592;BME280;74826;50.812;16.038;2023-12-28T08:24:09;96655.97;;;5.51;67.69
84592;BME280;74826;50.812;16.038;2023-12-28T08:26:34;96663.31;;;5.35;68.75
84592;BME280;74826;50.812;16.038;2023-12-28T08:28:59;96693.03;;;5.58;68.96
84592;BME280;74826;50.812;16.038;2023-12-28T08:31:25;96714.28;;;5.37;69.93
84592;BME280;74826;50.812;16.038;2023-12-28T08:33:50;96705.53;;;5.28;70.44
84592;BME280;74826;50.812;16.038;2023-12-28T08:36:16;96713.38;;;5.28;71.03
84592;BME280;74826;50.812;16.038;2023-12-28T08:38:43;96723.97;;;5.18;72.63
84592;BME280;74826;50.812;16.038;2023-12-28T08:41:18;96736.47;;;5.21;73.58
84592;BME280;74826;50.812;16.038;2023-12-28T08:43:44;96721.91;;;5.15;74.54
84592;BME280;74826;50.812;16.038;2023-12-28T08:46:09;96730.34;;;5.12;75.06
84592;BME280;74826;50.812;16.038;2023-12-28T08:48:34;96712.09;;;5.07;75.56
84592;BME280;74826;50.812;16.038;2023-12-28T08:51:00;96720.94;;;5.11;76.71
84592;BME280;74826;50.812;16.038;2023-12-28T08:53:25;96709.47;;;5.07;76.90
84592;BME280;74826;50.812;16.038;2023-12-28T08:55:50;96728.06;;;5.06;75.88
84592;BME280;74826;50.812;16.038;2023-12-28T08:58:16;96726.88;;;4.98;76.68
84592;BME280;74826;50.812;16.038;2023-12-28T09:00:42;96730.69;;;4.87;76.88
84592;BME280;74826;50.812;16.038;2023-12-28T09:03:10;96727.94;;;4.97;76.81
84592;BME280;74826;50.812;16.038;2023-12-28T09:05:35;96735.09;;;5.10;76.90
84592;BME280;74826;50.812;16.038;2023-12-28T09:08:01;96722.72;;;5.16;76.88
84592;BME280;74826;50.812;16.038;2023-12-28T09:10:26;96725.59;;;5.14;75.56
84592;BME280;74826;50.812;16.038;2023-12-28T09:12:51;96727.09;;;5.20;75.97
84592;BME280;74826;50.812;16.038;2023-12-28T09:15:17;96753.91;;;5.44;75.03
84592;BME280;74826;50.812;16.038;2023-12-28T09:17:42;96733.56;;;5.41;75.03
84592;BME280;74826;50.812;16.038;2023-12-28T09:20:08;96746.44;;;5.38;76.88
84592;BME280;74826;50.812;16.038;2023-12-28T09:22:33;96747.22;;;5.38;75.29
84592;BME280;74826;50.812;16.038;2023-12-28T09:24:59;96725.78;;;5.36;75.60
84592;BME280;74826;50.812;16.038;2023-12-28T09:27:24;96700.13;;;5.38;74.63
84592;BME280;74826;50.812;16.038;2023-12-28T09:29:50;96708.47;;;5.40;75.53
84592;BME280;74826;50.812;16.038;2023-12-28T09:32:16;96728.84;;;5.43;75.57
84592;BME280;74826;50.812;16.038;2023-12-28T09:34:42;96687.78;;;5.25;75.61
84592;BME280;74826;50.812;16.038;2023-12-28T09:37:07;96697.81;;;5.37;75.56
84592;BME280;74826;50.812;16.038;2023-12-28T09:39:33;96668.63;;;5.30;74.65
84592;BME280;74826;50.812;16.038;2023-12-28T09:42:16;96662.78;;;5.52;75.22
84592;BME280;74826;50.812;16.038;2023-12-28T09:44:43;96661.41;;;5.54;73.71
84592;BME280;74826;50.812;16.038;2023-12-28T09:47:09;96694.44;;;5.82;74.56
84592;BME280;74826;50.812;16.038;2023-12-28T09:49:38;96701.47;;;5.87;73.41
84592;BME280;74826;50.812;16.038;2023-12-28T09:52:05;96705.75;;;5.78;73.42
84592;BME280;74826;50.812;16.038;2023-12-28T09:54:31;96672.50;;;5.65;74.22
84592;BME280;74826;50.812;16.038;2023-12-28T09:56:56;96708.56;;;5.81;73.97
84592;BME280;74826;50.812;16.038;2023-12-28T09:59:23;96687.09;;;5.84;74.00
84592;BME280;74826;50.812;16.038;2023-12-28T10:01:49;96686.13;;;5.94;73.35
84592;BME280;74826;50.812;16.038;2023-12-28T10:04:16;96687.50;;;6.05;73.04
84592;BME280;74826;50.812;16.038;2023-12-28T10:06:41;96678.19;;;5.99;72.74
84592;BME280;74826;50.812;16.038;2023-12-28T10:09:06;96696.13;;;5.92;72.84
84592;BME280;74826;50.812;16.038;2023-12-28T10:11:33;96707.97;;;6.03;73.22
84592;BME280;74826;50.812;16.038;2023-12-28T10:13:59;96682.00;;;6.06;72.71
84592;BME280;74826;50.812;16.038;2023-12-28T10:16:24;96658.31;;;5.98;73.52
84592;BME280;74826;50.812;16.038;2023-12-28T10:18:50;96669.28;;;6.13;73.00
84592;BME280;74826;50.812;16.038;2023-12-28T10:21:15;96669.94;;;6.32;72.94
84592;BME280;74826;50.812;16.038;2023-12-28T10:23:40;96700.88;;;6.58;71.65
84592;BME280;74826;50.812;16.038;2023-12-28T10:26:06;96687.97;;;6.61;71.33
84592;BME280;74826;50.812;16.038;2023-12-28T10:28:34;96694.88;;;6.57;71.54
84592;BME280;74826;50.812;16.038;2023-12-28T10:31:00;96703.00;;;6.69;72.29
84592;BME280;74826;50.812;16.038;2023-12-28T10:33:26;96673.03;;;6.48;72.40
84592;BME280;74826;50.812;16.038;2023-12-28T10:35:52;96689.25;;;6.50;71.68
84592;BME280;74826;50.812;16.038;2023-12-28T10:38:19;96680.34;;;6.24;70.53
84592;BME280;74826;50.812;16.038;2023-12-28T10:40:46;96682.66;;;5.98;72.06
84592;BME280;74826;50.812;16.038;2023-12-28T10:43:15;96681.69;;;6.08;70.96
84592;BME280;74826;50.812;16.038;2023-12-28T10:45:41;96661.72;;;6.12;72.10
84592;BME280;74826;50.812;16.038;2023-12-28T10:48:11;96692.19;;;6.08;72.27
84592;BME280;74826;50.812;16.038;2023-12-28T10:50:41;96664.72;;;5.92;72.17
84592;BME280;74826;50.812;16.038;2023-12-28T10:53:26;96659.56;;;5.87;72.70
84592;BME280;74826;50.812;16.038;2023-12-28T10:56:29;96653.94;;;6.07;72.59
84592;BME280;74826;50.812;16.038;2023-12-28T11:01:42;96681.59;;;6.26;72.03
84592;BME280;74826;50.812;16.038;2023-12-28T11:04:25;96669.16;;;6.18;72.41
84592;BME280;74826;50.812;16.038;2023-12-28T11:06:52;96679.19;;;6.44;71.74
84592;BME280;74826;50.812;16.038;2023-12-28T11:09:20;96664.41;;;6.34;71.60
84592;BME280;74826;50.812;16.038;2023-12-28T11:11:47;96641.94;;;6.19;73.25
84592;BME280;74826;50.812;16.038;2023-12-28T11:14:16;96678.59;;;6.33;72.16
84592;BME280;74826;50.812;16.038;2023-12-28T11:16:43;96675.28;;;6.41;71.17
84592;BME280;74826;50.812;16.038;2023-12-28T11:19:09;96659.88;;;6.26;70.14
84592;BME280;74826;50.812;16.038;2023-12-28T11:21:36;96648.91;;;6.38;70.02
84592;BME280;74826;50.812;16.038;2023-12-28T11:24:02;96662.84;;;6.47;70.44
84592;BME280;74826;50.812;16.038;2023-12-28T11:26:28;96658.97;;;6.44;70.37
84592;BME280;74826;50.812;16.038;2023-12-28T11:29:20;96671.28;;;6.71;69.59
84592;BME280;74826;50.812;16.038;2023-12-28T11:31:51;96669.19;;;6.81;69.32
84592;BME280;74826;50.812;16.038;2023-12-28T11:34:16;96644.19;;;6.62;68.83
84592;BME280;74826;50.812;16.038;2023-12-28T11:36:49;96658.34;;;6.74;68.59
84592;BME280;74826;50.812;16.038;2023-12-28T11:39:20;96660.16;;;6.87;69.40
84592;BME280;74826;50.812;16.038;2023-12-28T11:41:50;96661.16;;;7.13;69.30
84592;BME280;74826;50.812;16.038;2023-12-28T11:44:16;96649.19;;;7.30;69.00
84592;BME280;74826;50.812;16.038;2023-12-28T11:46:42;96648.72;;;7.28;68.30
84592;BME280;74826;50.812;16.038;2023-12-28T11:49:08;96642.97;;;7.39;68.14
84592;BME280;74826;50.812;16.038;2023-12-28T11:51:36;96619.38;;;7.48;68.34
84592;BME280;74826;50.812;16.038;2023-12-28T11:54:03;96618.47;;;7.52;68.25
84592;BME280;74826;50.812;16.038;2023-12-28T11:56:30;96635.81;;;7.62;68.67
84592;BME280;74826;50.812;16.038;2023-12-28T11:58:55;96637.81;;;7.65;68.24
84592;BME280;74826;50.812;16.038;2023-12-28T12:01:20;96627.47;;;7.60;68.57
84592;BME280;74826;50.812;16.038;2023-12-28T12:03:47;96651.44;;;7.67;68.17
84592;BME280;74826;50.812;16.038;2023-12-28T12:06:14;96631.13;;;7.81;67.31
84592;BME280;74826;50.812;16.038;2023-12-28T12:08:40;96636.25;;;7.86;66.28
84592;BME280;74826;50.812;16.038;2023-12-28T12:11:06;96627.75;;;7.89;66.24
84592;BME280;74826;50.812;16.038;2023-12-28T12:13:32;96626.06;;;7.93;65.23
84592;BME280;74826;50.812;16.038;2023-12-28T12:15:57;96611.78;;;7.77;66.08
84592;BME280;74826;50.812;16.038;2023-12-28T12:18:25;96607.84;;;7.88;65.86
84592;BME280;74826;50.812;16.038;2023-12-28T12:20:51;96627.19;;;8.00;65.69
84592;BME280;74826;50.812;16.038;2023-12-28T12:23:16;96624.59;;;8.09;65.79
84592;BME280;74826;50.812;16.038;2023-12-28T12:25:42;96625.66;;;7.99;65.47
84592;BME280;74826;50.812;16.038;2023-12-28T12:28:10;96628.63;;;8.15;65.01
84592;BME280;74826;50.812;16.038;2023-12-28T12:30:36;96609.09;;;7.99;65.13
84592;BME280;74826;50.812;16.038;2023-12-28T12:33:01;96621.13;;;8.00;64.31
84592;BME280;74826;50.812;16.038;2023-12-28T12:35:27;96633.53;;;8.08;64.57
84592;BME280;74826;50.812;16.038;2023-12-28T12:37:53;96602.28;;;7.98;63.97
84592;BME280;74826;50.812;16.038;2023-12-28T12:40:19;96612.88;;;8.15;64.46
84592;BME280;74826;50.812;16.038;2023-12-28T12:42:55;96623.44;;;8.32;63.64
84592;BME280;74826;50.812;16.038;2023-12-28T12:45:21;96615.81;;;8.22;64.66
84592;BME280;74826;50.812;16.038;2023-12-28T12:47:51;96591.66;;;8.03;64.65
84592;BME280;74826;50.812;16.038;2023-12-28T12:50:17;96590.72;;;7.99;63.58
84592;BME280;74826;50.812;16.038;2023-12-28T12:52:42;96586.53;;;7.98;65.04
84592;BME280;74826;50.812;16.038;2023-12-28T12:55:12;96584.34;;;7.91;64.88
84592;BME280;74826;50.812;16.038;2023-12-28T12:57:38;96575.19;;;7.80;65.11